Terminal Aerodrome Forecast
Issued by NWS Cleveland, OH

Home | Current Version | Previous Version | Text Only | Print | Product List | Glossary Off
Versions: 1 2 3 4 5 6 7 8 9 10 11 12 13 14 15 16 17

000
FTUS41 KCLE 262333
TAFTOL
TAF
KTOL 262333Z 2700/2724 08012KT P6SM -RA SCT035 OVC060
     FM270300 06012KT P6SM -RA OVC035
     FM270600 04012KT 5SM -RA BR OVC025
     FM270900 03014G20KT 3SM -RA BR OVC008
     FM271200 02018G28KT 3SM SHRA BR OVC012
     FM271600 35022G32KT 5SM -SHRA BR OVC012=

USA.gov is the U.S. government's official web portal to all federal, state and local government web resources and services.